CheckWX is a tool to help pilots better visualize weather data.  It is not intended as a substitute for an official pre-flight weather briefing.

18:06:10 UTC

KJAX METAR
Jacksonville International Airport
Jacksonville, Florida, USA
Current

10 mins ago

KJAX 211756Z 30005KT 10SM SCT038 34/22 A3006 RMK AO2 SLP180 T03390222 10339 20244 58006 $
Observed
Jul-21 @ 17:56 UTC
Wind
  • 300° at 5 KTS
Visibility
10 SM
Flight Rules
VFR
Cloud Levels
  • Scattered at 3,800' AGL
Temperature
34°C / 93°F
Dewpoint
22°C / 72°F
Heat Index
38°C / 100°F
Humidity
49%
Altimeter
30.06" Hg
Pressure
1017.92 hPa
Previous

1 hour ago

KJAX 211656Z 03003KT 10SM BKN035 32/23 A3008 RMK AO2 SLP185 T03220228 $
Observed
Jul-21 @ 16:56 UTC
Wind
  • 030° at 3 KTS
Visibility
10 SM
Flight Rules
VFR
Cloud Levels
  • Broken at 3,500' AGL
Temperature
32°C / 90°F
Dewpoint
23°C / 73°F
Heat Index
37°C / 99°F
Humidity
59%
Altimeter
30.08" Hg
Pressure
1018.62 hPa
Previous

2 hours ago

KJAX 211556Z VRB03KT 10SM SCT025 SCT250 32/23 A3007 RMK AO2 SLP183 T03170233 $
Observed
Jul-21 @ 15:56 UTC
Wind
  • Variable at 3 KTS
Visibility
10 SM
Flight Rules
VFR
Cloud Levels
  • Scattered at 2,500' AGL
  • Scattered at 25,000' AGL
Temperature
32°C / 90°F
Dewpoint
23°C / 73°F
Heat Index
37°C / 99°F
Humidity
59%
Altimeter
30.07" Hg
Pressure
1018.32 hPa